createdAt,value
2023-01-29T00:01:56.408Z,99.90
2023-01-29T00:04:23.941Z,99.90
2023-01-29T00:06:50.700Z,99.90
2023-01-29T00:09:18.176Z,99.90
2023-01-29T00:11:44.994Z,99.90
2023-01-29T00:14:11.957Z,99.90
2023-01-29T00:16:38.744Z,99.90
2023-01-29T00:19:05.569Z,99.90
2023-01-29T00:21:32.421Z,99.90
2023-01-29T00:23:59.954Z,99.90
2023-01-29T00:26:27.495Z,99.90
2023-01-29T00:28:57.051Z,99.90
2023-01-29T00:31:25.269Z,99.90
2023-01-29T00:33:52.475Z,99.90
2023-01-29T00:36:21.053Z,99.90
2023-01-29T00:38:54.605Z,99.90
2023-01-29T00:41:41.822Z,99.90
2023-01-29T00:44:28.484Z,99.90
2023-01-29T00:46:55.231Z,99.90
2023-01-29T00:49:22.191Z,99.90
2023-01-29T00:52:08.840Z,99.90
2023-01-29T00:54:35.952Z,99.90
2023-01-29T00:57:04.229Z,99.90
2023-01-29T00:59:31.252Z,99.90
2023-01-29T01:02:18.186Z,99.90
2023-01-29T01:04:44.835Z,99.90
2023-01-29T01:09:57.208Z,99.90
2023-01-29T01:12:24.036Z,99.90
2023-01-29T01:14:50.725Z,99.90
2023-01-29T01:17:17.761Z,99.90
2023-01-29T01:19:44.769Z,99.90
2023-01-29T01:22:11.587Z,99.90
2023-01-29T01:24:39.205Z,99.90
2023-01-29T01:27:06.603Z,99.90
2023-01-29T01:29:33.366Z,99.90
2023-01-29T01:32:02.043Z,99.90
2023-01-29T01:34:29.096Z,99.90
2023-01-29T01:36:56.311Z,99.90
2023-01-29T01:39:24.189Z,99.90
2023-01-29T01:41:53.548Z,99.90
2023-01-29T01:44:55.846Z,99.90
2023-01-29T01:47:41.717Z,99.90
2023-01-29T01:50:14.125Z,99.90
2023-01-29T01:52:46.867Z,99.90
2023-01-29T01:55:17.408Z,99.90
2023-01-29T01:57:47.921Z,99.90
2023-01-29T02:00:18.585Z,99.90
2023-01-29T02:03:06.885Z,99.90
2023-01-29T02:05:55.003Z,99.90
2023-01-29T02:09:05.212Z,99.90
2023-01-29T02:11:32.016Z,99.90
2023-01-29T02:13:59.241Z,99.90
2023-01-29T02:16:26.235Z,99.90
2023-01-29T02:18:53.291Z,99.90
2023-01-29T02:21:45.441Z,99.90
2023-01-29T02:24:37.004Z,99.90
2023-01-29T02:27:14.090Z,99.90
2023-01-29T02:29:41.788Z,99.90
2023-01-29T02:32:19.224Z,99.90
2023-01-29T02:35:13.855Z,99.90
2023-01-29T02:37:54.174Z,99.90
2023-01-29T02:40:47.041Z,99.90
2023-01-29T02:43:42.731Z,99.90
2023-01-29T02:46:22.991Z,99.90
2023-01-29T02:49:09.801Z,99.90
2023-01-29T02:51:43.207Z,99.90
2023-01-29T02:54:21.627Z,99.90
2023-01-29T02:56:57.751Z,99.90
2023-01-29T02:59:33.147Z,99.90
2023-01-29T03:02:08.166Z,99.90
2023-01-29T03:04:42.632Z,99.90
2023-01-29T03:07:43.300Z,99.90
2023-01-29T03:10:33.909Z,99.90
2023-01-29T03:15:42.303Z,99.90
2023-01-29T03:18:14.163Z,99.90
2023-01-29T03:20:48.293Z,99.90
2023-01-29T03:23:38.104Z,99.90
2023-01-29T03:26:26.148Z,99.90
2023-01-29T03:29:13.323Z,99.90
2023-01-29T03:32:00.529Z,99.90
2023-01-29T03:37:09.276Z,99.90
2023-01-29T03:39:36.941Z,99.90
2023-01-29T03:42:03.714Z,99.90
2023-01-29T03:44:48.930Z,99.90
2023-01-29T03:47:43.456Z,99.90
2023-01-29T03:50:30.945Z,99.90
2023-01-29T03:53:32.617Z,99.90
2023-01-29T03:56:08.980Z,99.90
2023-01-29T03:58:37.287Z,99.90
2023-01-29T04:01:13.101Z,99.90
2023-01-29T04:03:49.527Z,99.90
2023-01-29T04:06:27.479Z,99.90
2023-01-29T04:09:16.085Z,99.90
2023-01-29T04:24:07.384Z,96.00
2023-01-29T06:39:01.300Z,95.30
2023-01-29T06:53:46.084Z,95.80
2023-01-29T07:50:29.096Z,94.20
2023-01-29T07:52:55.811Z,94.30
2023-01-29T08:10:20.947Z,94.00
2023-01-29T08:47:22.880Z,93.00
2023-01-29T14:04:02.225Z,69.40
2023-01-29T14:32:26.541Z,60.20
2023-01-29T15:43:48.643Z,83.70
2023-01-29T16:03:39.108Z,89.00
2023-01-29T16:13:33.934Z,91.30
2023-01-29T16:16:08.253Z,92.30
2023-01-29T16:18:47.726Z,93.50
2023-01-29T16:21:28.514Z,94.20
2023-01-29T16:23:59.704Z,95.10
2023-01-29T16:26:29.868Z,95.80
2023-01-29T16:33:56.589Z,96.40
2023-01-29T16:41:22.028Z,97.60
2023-01-29T16:56:32.268Z,99.90
2023-01-29T22:52:11.547Z,99.90
2023-01-29T23:16:47.540Z,99.90
